Time;durP1;ratioP1;P1;durP2;ratioP2;P2;SDS_P1;SDS_P2;PMS_P1;PMS_P2;Temp;Humidity;BMP_temperature;BMP_pressure;BME280_temperature;BME280_humidity;BME280_pressure;Samples;Min_cycle;Max_cycle;Signal;HPM_P1;HPM_P2
2022/07/13 00:00:29;;;;;;;;;;;15.50;99.90;;;;;;5052550;28;20011;-71
2022/07/13 00:02:55;;;;;;;;;;;15.50;99.90;;;;;;5052891;28;19960;-71
2022/07/13 00:05:20;;;;;;;;;;;15.50;99.90;;;;;;5052388;28;19928;-72
2022/07/13 00:07:46;;;;;;;;;;;15.50;99.90;;;;;;5052741;28;19917;-71
2022/07/13 00:10:11;;;;;;;;;;;15.40;99.90;;;;;;5051739;28;20380;-71
2022/07/13 00:12:37;;;;;;;;;;;15.40;99.90;;;;;;5034643;28;20009;-72
2022/07/13 00:15:03;;;;;;;;;;;15.40;99.90;;;;;;5052317;28;19909;-71
2022/07/13 00:17:29;;;;;;;;;;;15.40;99.90;;;;;;5052870;28;19970;-72
2022/07/13 00:19:54;;;;;;;;;;;15.50;99.90;;;;;;5052311;28;20005;-71
2022/07/13 00:22:20;;;;;;;;;;;15.30;99.90;;;;;;5052369;28;19921;-72
2022/07/13 00:24:45;;;;;;;;;;;15.30;99.90;;;;;;5052309;28;20524;-71
2022/07/13 00:27:11;;;;;;;;;;;15.30;99.90;;;;;;5052306;28;19917;-71
2022/07/13 00:29:36;;;;;;;;;;;15.30;99.90;;;;;;5034152;28;19922;-71
2022/07/13 00:32:02;;;;;;;;;;;15.20;99.90;;;;;;5052207;28;19960;-71
2022/07/13 00:34:30;;;;;;;;;;;15.20;99.90;;;;;;5052091;28;19913;-72
2022/07/13 00:36:56;;;;;;;;;;;15.30;99.90;;;;;;5052094;28;20393;-72
2022/07/13 00:39:22;;;;;;;;;;;16.20;99.90;;;;;;5051811;28;19944;-72
2022/07/13 00:41:48;;;;;;;;;;;15.20;99.90;;;;;;5034049;28;19963;-72
2022/07/13 00:44:13;;;;;;;;;;;15.20;99.90;;;;;;5051882;28;19944;-71
2022/07/13 00:46:40;;;;;;;;;;;15.20;99.90;;;;;;5051836;28;19908;-71
2022/07/13 00:49:05;;;;;;;;;;;15.20;99.90;;;;;;5051898;28;19944;-71
2022/07/13 00:51:31;;;;;;;;;;;15.20;99.90;;;;;;5033883;28;20010;-71
2022/07/13 00:53:57;;;;;;;;;;;15.20;99.90;;;;;;5052027;28;19916;-71
2022/07/13 00:56:24;;;;;;;;;;;15.20;99.90;;;;;;5051527;28;20284;-71
2022/07/13 00:58:50;;;;;;;;;;;15.30;99.90;;;;;;5033839;28;20322;-71
2022/07/13 01:01:16;;;;;;;;;;;15.20;99.90;;;;;;5051623;28;19915;-71
2022/07/13 01:03:41;;;;;;;;;;;15.20;99.90;;;;;;5033642;28;19917;-71
2022/07/13 01:06:07;;;;;;;;;;;15.20;99.90;;;;;;5051401;28;19974;-71
2022/07/13 01:08:33;;;;;;;;;;;15.20;99.90;;;;;;5051871;28;19965;-73
2022/07/13 01:10:59;;;;;;;;;;;15.20;99.90;;;;;;5033455;28;19912;-72
2022/07/13 01:13:25;;;;;;;;;;;15.20;99.90;;;;;;5051745;28;19917;-71
2022/07/13 01:15:50;;;;;;;;;;;15.20;99.90;;;;;;5033188;28;19912;-71
2022/07/13 01:18:16;;;;;;;;;;;15.20;99.90;;;;;;5033637;28;19924;-72
2022/07/13 01:20:42;;;;;;;;;;;15.20;99.90;;;;;;5033444;28;20003;-72
2022/07/13 01:23:09;;;;;;;;;;;15.10;99.90;;;;;;5051177;28;20442;-71
2022/07/13 01:25:34;;;;;;;;;;;15.10;99.90;;;;;;5051242;28;19916;-72
2022/07/13 01:28:00;;;;;;;;;;;15.10;99.90;;;;;;5051327;28;19944;-71
2022/07/13 01:30:25;;;;;;;;;;;15.10;99.90;;;;;;5032829;28;19956;-73
2022/07/13 01:32:51;;;;;;;;;;;15.10;99.90;;;;;;5051137;28;20430;-71
2022/07/13 01:35:18;;;;;;;;;;;15.00;99.90;;;;;;5050753;28;19913;-72
2022/07/13 01:37:44;;;;;;;;;;;15.00;99.90;;;;;;5050997;28;19923;-72
2022/07/13 01:40:10;;;;;;;;;;;15.00;99.90;;;;;;5032749;28;19964;-72
2022/07/13 01:42:39;;;;;;;;;;;15.00;99.90;;;;;;5050841;28;19963;-72
2022/07/13 01:45:07;;;;;;;;;;;15.00;99.90;;;;;;5050779;28;19913;-72
2022/07/13 01:47:36;;;;;;;;;;;15.00;99.90;;;;;;5032745;28;19924;-72
2022/07/13 01:50:01;;;;;;;;;;;14.90;99.90;;;;;;5050777;28;20400;-71
2022/07/13 01:52:27;;;;;;;;;;;14.90;99.90;;;;;;5032782;28;19986;-71
2022/07/13 01:54:52;;;;;;;;;;;14.90;99.90;;;;;;5050790;28;19916;-71
2022/07/13 01:57:18;;;;;;;;;;;14.90;99.90;;;;;;5050737;28;20019;-71
2022/07/13 01:59:43;;;;;;;;;;;14.80;99.90;;;;;;5050671;28;19909;-70
2022/07/13 02:02:09;;;;;;;;;;;14.70;99.90;;;;;;5050661;28;19959;-71
2022/07/13 02:04:34;;;;;;;;;;;14.70;99.90;;;;;;5050524;28;19909;-71
2022/07/13 02:07:00;;;;;;;;;;;14.60;99.90;;;;;;5050571;28;19917;-72
2022/07/13 02:09:26;;;;;;;;;;;14.60;99.90;;;;;;5050494;28;19916;-70
2022/07/13 02:11:51;;;;;;;;;;;14.50;99.90;;;;;;5050528;28;20289;-71
2022/07/13 02:14:17;;;;;;;;;;;14.40;99.90;;;;;;5050401;28;19913;-72
2022/07/13 02:16:42;;;;;;;;;;;14.40;99.90;;;;;;5050232;28;19917;-71
2022/07/13 02:19:08;;;;;;;;;;;14.30;99.90;;;;;;5050356;28;19919;-71
2022/07/13 02:21:33;;;;;;;;;;;14.20;99.90;;;;;;5050261;28;19992;-71
2022/07/13 02:23:59;;;;;;;;;;;14.20;99.90;;;;;;5050252;28;19908;-71
2022/07/13 02:26:24;;;;;;;;;;;14.20;99.90;;;;;;5050276;28;19916;-71
2022/07/13 02:28:50;;;;;;;;;;;14.10;99.90;;;;;;5050081;28;20407;-71
2022/07/13 02:31:18;;;;;;;;;;;14.10;99.90;;;;;;5032338;28;19908;-71
2022/07/13 02:33:43;;;;;;;;;;;14.10;99.90;;;;;;5050439;28;19928;-71
2022/07/13 02:36:09;;;;;;;;;;;14.00;99.90;;;;;;5054112;28;19916;-71
2022/07/13 02:38:34;;;;;;;;;;;14.10;99.90;;;;;;5054518;28;19921;-71
2022/07/13 02:41:00;;;;;;;;;;;14.00;99.90;;;;;;5053930;28;20351;-72
2022/07/13 02:43:25;;;;;;;;;;;14.00;99.90;;;;;;5054555;28;19917;-71
2022/07/13 02:45:51;;;;;;;;;;;13.90;99.90;;;;;;5036144;28;19909;-71
2022/07/13 02:48:18;;;;;;;;;;;13.90;99.90;;;;;;5035913;28;19917;-71
2022/07/13 02:50:44;;;;;;;;;;;13.90;99.90;;;;;;5036062;28;20272;-71
2022/07/13 02:53:09;;;;;;;;;;;13.90;99.90;;;;;;5054385;28;19917;-71
2022/07/13 02:55:35;;;;;;;;;;;13.80;99.90;;;;;;5054338;28;20333;-71
2022/07/13 02:58:00;;;;;;;;;;;13.90;99.90;;;;;;5053882;28;19924;-71
2022/07/13 03:00:26;;;;;;;;;;;13.80;99.90;;;;;;5054071;28;20400;-71
2022/07/13 03:02:52;;;;;;;;;;;13.80;99.90;;;;;;5035781;28;20016;-70
2022/07/13 03:05:17;;;;;;;;;;;13.80;99.90;;;;;;5053792;28;20322;-70
2022/07/13 03:07:43;;;;;;;;;;;13.80;99.90;;;;;;5035749;28;19921;-70
2022/07/13 03:10:08;;;;;;;;;;;13.80;99.90;;;;;;5053836;28;19913;-71
2022/07/13 03:12:34;;;;;;;;;;;13.80;99.90;;;;;;5053832;28;19960;-71
2022/07/13 03:14:59;;;;;;;;;;;13.80;99.90;;;;;;5053641;28;20684;-71
2022/07/13 03:17:25;;;;;;;;;;;13.80;99.90;;;;;;5035673;28;19943;-71
2022/07/13 03:19:50;;;;;;;;;;;13.70;99.90;;;;;;5035583;28;20465;-72
2022/07/13 03:22:16;;;;;;;;;;;14.20;99.90;;;;;;5035640;28;19923;-71
2022/07/13 03:24:41;;;;;;;;;;;13.80;99.90;;;;;;5053275;28;19944;-70
2022/07/13 03:27:07;;;;;;;;;;;13.70;99.90;;;;;;5053432;28;20296;-70
2022/07/13 03:29:33;;;;;;;;;;;13.80;99.90;;;;;;5053096;28;19956;-71
2022/07/13 03:31:58;;;;;;;;;;;13.80;99.90;;;;;;5035220;28;19928;-71
2022/07/13 03:34:23;;;;;;;;;;;13.80;99.90;;;;;;5053147;28;19921;-71
2022/07/13 03:36:49;;;;;;;;;;;13.80;99.90;;;;;;5053098;28;19924;-71
2022/07/13 03:39:14;;;;;;;;;;;13.80;99.90;;;;;;5052730;28;19909;-70
2022/07/13 03:41:40;;;;;;;;;;;13.80;99.90;;;;;;5034988;28;20390;-70
2022/07/13 03:44:06;;;;;;;;;;;13.80;99.90;;;;;;5034964;28;19913;-70
2022/07/13 03:46:32;;;;;;;;;;;13.80;99.90;;;;;;5053078;28;20585;-71
2022/07/13 03:48:57;;;;;;;;;;;13.80;99.90;;;;;;5052950;28;19966;-71
2022/07/13 03:51:23;;;;;;;;;;;13.90;99.90;;;;;;5052821;28;19917;-71
2022/07/13 03:53:48;;;;;;;;;;;13.80;99.90;;;;;;5053271;28;19917;-70
2022/07/13 03:56:13;;;;;;;;;;;13.80;99.90;;;;;;5052772;28;19959;-71
2022/07/13 03:58:39;;;;;;;;;;;13.80;99.90;;;;;;5035006;28;20309;-71
2022/07/13 04:01:05;;;;;;;;;;;13.80;99.90;;;;;;5052878;28;20289;-71
2022/07/13 04:03:31;;;;;;;;;;;13.80;99.90;;;;;;5053029;28;20008;-71
2022/07/13 04:05:56;;;;;;;;;;;13.80;99.90;;;;;;5052637;28;20015;-71
2022/07/13 04:08:22;;;;;;;;;;;13.90;99.90;;;;;;5034874;28;19920;-70
2022/07/13 04:10:47;;;;;;;;;;;13.90;99.90;;;;;;5052085;28;20284;-72
2022/07/13 04:13:13;;;;;;;;;;;13.90;99.90;;;;;;5052958;28;19952;-71
2022/07/13 04:15:38;;;;;;;;;;;13.80;99.90;;;;;;5052392;28;19952;-70
2022/07/13 04:18:04;;;;;;;;;;;13.80;99.90;;;;;;5034705;28;19991;-73
2022/07/13 04:20:29;;;;;;;;;;;13.90;99.90;;;;;;5052385;28;19991;-71
2022/07/13 04:22:55;;;;;;;;;;;13.90;99.90;;;;;;5034192;28;20420;-71
2022/07/13 04:25:21;;;;;;;;;;;13.90;99.90;;;;;;5052160;28;19916;-72
2022/07/13 04:27:46;;;;;;;;;;;14.00;99.90;;;;;;5052600;28;20014;-71
2022/07/13 04:30:12;;;;;;;;;;;13.90;99.90;;;;;;5052014;28;20284;-70
2022/07/13 04:32:37;;;;;;;;;;;13.90;99.90;;;;;;5052247;28;19913;-71
2022/07/13 04:35:03;;;;;;;;;;;14.00;99.90;;;;;;5033854;28;20313;-70
2022/07/13 04:37:28;;;;;;;;;;;14.00;99.90;;;;;;5051864;28;19917;-71
2022/07/13 04:39:54;;;;;;;;;;;14.00;99.90;;;;;;5051761;28;19933;-70
2022/07/13 04:42:19;;;;;;;;;;;14.00;99.90;;;;;;5052064;28;19917;-71
2022/07/13 04:44:45;;;;;;;;;;;14.00;99.90;;;;;;5052073;28;19986;-71
2022/07/13 04:47:10;;;;;;;;;;;14.00;99.90;;;;;;5051885;28;19923;-71
2022/07/13 04:49:36;;;;;;;;;;;14.10;99.90;;;;;;5051814;28;20262;-71
2022/07/13 04:52:01;;;;;;;;;;;14.10;99.90;;;;;;5051698;28;19928;-72
2022/07/13 04:54:27;;;;;;;;;;;14.10;99.90;;;;;;5052068;28;20419;-72
2022/07/13 04:56:52;;;;;;;;;;;14.10;99.90;;;;;;5051267;28;19921;-72
2022/07/13 04:59:18;;;;;;;;;;;14.10;99.90;;;;;;5051605;28;19917;-72
2022/07/13 05:01:43;;;;;;;;;;;14.10;99.90;;;;;;5051866;28;19909;-72
2022/07/13 05:04:09;;;;;;;;;;;14.00;99.90;;;;;;5051520;28;19917;-71
2022/07/13 05:06:34;;;;;;;;;;;14.10;99.90;;;;;;5051480;28;20070;-71
2022/07/13 05:09:00;;;;;;;;;;;14.10;99.90;;;;;;5051458;28;19912;-71
2022/07/13 05:11:26;;;;;;;;;;;14.20;99.90;;;;;;5051313;28;19912;-72
2022/07/13 05:13:52;;;;;;;;;;;14.20;99.90;;;;;;5051767;28;20264;-72
2022/07/13 05:16:18;;;;;;;;;;;14.20;99.90;;;;;;5051361;28;19988;-70
2022/07/13 05:18:43;;;;;;;;;;;14.20;99.90;;;;;;5051940;28;20019;-71
2022/07/13 05:21:10;;;;;;;;;;;14.20;99.90;;;;;;5051331;28;20004;-71
2022/07/13 05:23:36;;;;;;;;;;;14.20;99.90;;;;;;5051635;28;19912;-71
2022/07/13 05:26:01;;;;;;;;;;;14.20;99.90;;;;;;5050805;28;19919;-71
2022/07/13 05:28:27;;;;;;;;;;;14.20;99.90;;;;;;5051571;28;20012;-71
2022/07/13 05:30:52;;;;;;;;;;;14.20;99.90;;;;;;5032859;28;19913;-71
2022/07/13 05:33:19;;;;;;;;;;;14.20;99.90;;;;;;5051298;28;20245;-72
2022/07/13 05:35:45;;;;;;;;;;;14.20;99.90;;;;;;5050756;28;19925;-71
2022/07/13 05:38:10;;;;;;;;;;;14.20;99.90;;;;;;5051266;28;19971;-70
2022/07/13 05:40:36;;;;;;;;;;;14.20;99.90;;;;;;5050511;28;19924;-71
2022/07/13 05:43:01;;;;;;;;;;;14.30;99.90;;;;;;5032921;28;20019;-71
2022/07/13 05:45:27;;;;;;;;;;;14.30;99.90;;;;;;5050535;28;19909;-72
2022/07/13 05:47:52;;;;;;;;;;;14.30;99.90;;;;;;5051029;28;19917;-71
2022/07/13 05:50:18;;;;;;;;;;;14.30;99.90;;;;;;5050758;28;19908;-71
2022/07/13 05:52:43;;;;;;;;;;;14.30;99.90;;;;;;5050997;28;19923;-71
2022/07/13 05:55:09;;;;;;;;;;;14.30;99.90;;;;;;5050622;28;20357;-70
2022/07/13 05:57:35;;;;;;;;;;;14.20;99.90;;;;;;5050775;28;20365;-71
2022/07/13 06:00:01;;;;;;;;;;;14.10;99.90;;;;;;5050651;28;19913;-71
2022/07/13 06:02:26;;;;;;;;;;;14.10;99.90;;;;;;5050613;28;19924;-71
2022/07/13 06:04:52;;;;;;;;;;;14.10;99.90;;;;;;5050492;28;19931;-72
2022/07/13 06:07:17;;;;;;;;;;;14.00;99.90;;;;;;5050622;28;19924;-72
2022/07/13 06:09:43;;;;;;;;;;;14.00;99.90;;;;;;5031691;28;19908;-71
2022/07/13 06:12:08;;;;;;;;;;;13.90;99.90;;;;;;5050828;28;20023;-73
2022/07/13 06:14:34;;;;;;;;;;;13.90;99.90;;;;;;5050380;28;20300;-72
2022/07/13 06:16:59;;;;;;;;;;;13.90;99.90;;;;;;5050270;28;19939;-71
2022/07/13 06:19:24;;;;;;;;;;;13.90;99.90;;;;;;5032693;28;20004;-72
2022/07/13 06:21:50;;;;;;;;;;;14.00;99.90;;;;;;5050506;28;19979;-71
2022/07/13 06:24:16;;;;;;;;;;;13.80;99.90;;;;;;5050220;28;19915;-72
2022/07/13 06:26:41;;;;;;;;;;;13.90;99.90;;;;;;5050105;28;19909;-72
2022/07/13 06:29:07;;;;;;;;;;;13.90;99.90;;;;;;5032646;28;20331;-71
2022/07/13 06:31:32;;;;;;;;;;;13.90;99.90;;;;;;5050358;28;19952;-71
2022/07/13 06:33:58;;;;;;;;;;;13.90;99.90;;;;;;5050189;28;20395;-72
2022/07/13 06:36:23;;;;;;;;;;;13.90;99.90;;;;;;5050311;28;19995;-73
2022/07/13 06:38:49;;;;;;;;;;;13.90;99.90;;;;;;5050871;28;19921;-72
2022/07/13 06:41:15;;;;;;;;;;;14.00;99.90;;;;;;5031960;28;19921;-70
2022/07/13 06:43:41;;;;;;;;;;;14.00;99.90;;;;;;5050360;28;19924;-71
2022/07/13 06:46:07;;;;;;;;;;;14.00;99.90;;;;;;5032139;28;20269;-71
2022/07/13 06:48:32;;;;;;;;;;;14.10;99.90;;;;;;5032420;28;19917;-71
2022/07/13 06:50:58;;;;;;;;;;;14.10;99.90;;;;;;5050019;28;19978;-72
2022/07/13 06:53:23;;;;;;;;;;;14.10;99.90;;;;;;5032458;28;20441;-70
2022/07/13 06:55:49;;;;;;;;;;;14.30;99.90;;;;;;5050356;28;19920;-71
2022/07/13 06:58:14;;;;;;;;;;;14.20;99.90;;;;;;5050529;28;19928;-73
2022/07/13 07:00:40;;;;;;;;;;;14.30;99.90;;;;;;5050151;28;19912;-71
2022/07/13 07:03:05;;;;;;;;;;;14.30;99.90;;;;;;5031786;28;20008;-72
2022/07/13 07:05:31;;;;;;;;;;;14.40;99.90;;;;;;5049717;28;19909;-71
2022/07/13 07:07:56;;;;;;;;;;;14.40;99.90;;;;;;5050126;28;20456;-72
2022/07/13 07:10:22;;;;;;;;;;;14.40;99.90;;;;;;5032036;28;19908;-71
2022/07/13 07:12:47;;;;;;;;;;;14.40;99.90;;;;;;5050010;28;19971;-71
2022/07/13 07:15:13;;;;;;;;;;;14.40;99.90;;;;;;5049735;28;19959;-72
2022/07/13 07:17:48;;;;;;;;;;;14.40;99.90;;;;;;5049895;28;20416;-71
2022/07/13 07:20:14;;;;;;;;;;;14.40;99.90;;;;;;5032965;28;20000;-71
2022/07/13 07:22:40;;;;;;;;;;;14.40;99.90;;;;;;5053645;28;19943;-72
2022/07/13 07:25:07;;;;;;;;;;;14.40;99.90;;;;;;5035389;28;19917;-70
2022/07/13 07:27:32;;;;;;;;;;;14.40;99.90;;;;;;5053562;28;19920;-72
2022/07/13 07:29:58;;;;;;;;;;;14.40;99.90;;;;;;5053125;28;20349;-71
2022/07/13 07:32:24;;;;;;;;;;;14.40;99.90;;;;;;5053338;28;20011;-71
2022/07/13 07:34:49;;;;;;;;;;;14.50;99.90;;;;;;5053332;28;20333;-71
2022/07/13 07:37:15;;;;;;;;;;;14.50;99.90;;;;;;5053219;28;19927;-71
2022/07/13 07:39:41;;;;;;;;;;;14.40;99.90;;;;;;5034777;28;19974;-71
2022/07/13 07:42:06;;;;;;;;;;;14.40;99.90;;;;;;5053134;28;19925;-71
2022/07/13 07:44:32;;;;;;;;;;;14.40;99.90;;;;;;5052848;28;19909;-71
2022/07/13 07:46:57;;;;;;;;;;;14.30;99.90;;;;;;5034909;28;19979;-73
2022/07/13 07:49:23;;;;;;;;;;;14.40;99.90;;;;;;5053073;28;19919;-71
2022/07/13 07:51:48;;;;;;;;;;;14.20;99.90;;;;;;5052872;28;19948;-72
2022/07/13 07:54:14;;;;;;;;;;;14.20;99.90;;;;;;5052878;28;19916;-71
2022/07/13 07:56:39;;;;;;;;;;;14.30;99.90;;;;;;5034713;28;20258;-71
2022/07/13 07:59:05;;;;;;;;;;;14.30;99.90;;;;;;5052697;28;20331;-71
2022/07/13 08:01:30;;;;;;;;;;;14.40;99.90;;;;;;5034540;28;19909;-72
2022/07/13 08:03:56;;;;;;;;;;;14.40;99.90;;;;;;5052598;28;20349;-71
2022/07/13 08:06:21;;;;;;;;;;;14.40;99.90;;;;;;5034690;28;19995;-71
2022/07/13 08:08:47;;;;;;;;;;;14.40;99.90;;;;;;5034579;28;20379;-71
2022/07/13 08:11:17;;;;;;;;;;;14.40;99.90;;;;;;5052385;28;19916;-70
2022/07/13 08:13:44;;;;;;;;;;;14.40;99.90;;;;;;5052689;28;19963;-71
2022/07/13 08:16:10;;;;;;;;;;;14.40;99.90;;;;;;5034267;28;19921;-71
2022/07/13 08:18:36;;;;;;;;;;;14.40;99.90;;;;;;5034092;28;19916;-71
2022/07/13 08:21:01;;;;;;;;;;;14.40;99.90;;;;;;5052191;28;19915;-70
2022/07/13 08:26:11;;;;;;;;;;;14.50;99.90;;;;;;5052016;28;19916;-72
2022/07/13 08:28:36;;;;;;;;;;;14.50;99.90;;;;;;5052442;28;19917;-70
2022/07/13 08:31:02;;;;;;;;;;;14.50;99.90;;;;;;5051511;28;19909;-72
2022/07/13 08:38:55;;;;;;;;;;;14.50;99.90;;;;;;5052161;28;20005;-70
2022/07/13 08:41:22;;;;;;;;;;;14.50;99.90;;;;;;5051623;28;19960;-73
2022/07/13 08:43:48;;;;;;;;;;;14.50;99.90;;;;;;5052110;28;19946;-70
2022/07/13 08:46:13;;;;;;;;;;;14.50;99.90;;;;;;5051489;28;20013;-70
2022/07/13 08:48:41;;;;;;;;;;;14.50;99.90;;;;;;5051837;28;19920;-70
2022/07/13 08:51:07;;;;;;;;;;;14.50;99.90;;;;;;5051503;28;19916;-71
2022/07/13 08:53:34;;;;;;;;;;;14.50;99.90;;;;;;5051888;28;19916;-71
2022/07/13 08:56:00;;;;;;;;;;;14.50;99.90;;;;;;5051448;28;19924;-70
2022/07/13 08:58:25;;;;;;;;;;;14.50;99.90;;;;;;5051674;28;19917;-70
2022/07/13 09:00:51;;;;;;;;;;;14.50;99.90;;;;;;5033390;28;19909;-72
2022/07/13 09:03:16;;;;;;;;;;;14.60;99.90;;;;;;5051598;28;19924;-70
2022/07/13 09:05:42;;;;;;;;;;;14.60;99.90;;;;;;5051186;28;19909;-72
2022/07/13 09:08:09;;;;;;;;;;;14.70;99.90;;;;;;5051776;28;20197;-71
2022/07/13 09:10:56;;;;;;;;;;;14.80;99.90;;;;;;5051337;28;20277;-71
2022/07/13 09:13:41;;;;;;;;;;;14.80;99.90;;;;;;5033329;28;19917;-71
2022/07/13 09:16:13;;;;;;;;;;;14.80;99.90;;;;;;5051353;28;19913;-71
2022/07/13 09:18:38;;;;;;;;;;;14.80;99.90;;;;;;5051545;28;20001;-72
2022/07/13 09:21:04;;;;;;;;;;;14.80;99.90;;;;;;5051169;28;19940;-73
2022/07/13 09:23:29;;;;;;;;;;;14.90;99.90;;;;;;5050867;28;19991;-71
2022/07/13 09:25:55;;;;;;;;;;;14.90;99.90;;;;;;5050994;28;19967;-71
2022/07/13 09:28:21;;;;;;;;;;;14.90;99.90;;;;;;5032911;28;19916;-72
2022/07/13 09:30:47;;;;;;;;;;;15.00;99.90;;;;;;5032936;28;19916;-72
2022/07/13 09:33:12;;;;;;;;;;;15.00;99.90;;;;;;5051232;28;20296;-71
2022/07/13 09:35:51;;;;;;;;;;;15.00;99.90;;;;;;5050539;28;19913;-73
2022/07/13 09:38:28;;;;;;;;;;;15.00;99.90;;;;;;5050804;28;20339;-71
2022/07/13 09:40:53;;;;;;;;;;;15.00;99.90;;;;;;5050579;28;19952;-71
2022/07/13 09:46:10;;;;;;;;;;;15.00;99.90;;;;;;5050762;28;20016;-72
2022/07/13 09:48:36;;;;;;;;;;;15.00;99.90;;;;;;5051072;28;19920;-73
2022/07/13 09:51:02;;;;;;;;;;;15.10;99.90;;;;;;5032780;28;19909;-72
2022/07/13 09:53:32;;;;;;;;;;;15.10;99.90;;;;;;5050545;28;19917;-71
2022/07/13 09:55:59;;;;;;;;;;;15.10;99.90;;;;;;5050433;28;19964;-71
2022/07/13 09:58:35;;;;;;;;;;;15.10;99.90;;;;;;5050527;28;19923;-72
2022/07/13 10:01:03;;;;;;;;;;;15.10;99.90;;;;;;5050498;28;20360;-72
2022/07/13 10:03:29;;;;;;;;;;;15.10;99.90;;;;;;5032603;28;19917;-70
2022/07/13 10:05:55;;;;;;;;;;;15.20;99.90;;;;;;5032744;28;19912;-72
2022/07/13 10:08:21;;;;;;;;;;;15.10;99.90;;;;;;5050497;28;20003;-71
2022/07/13 10:10:46;;;;;;;;;;;15.20;99.90;;;;;;5032384;28;20020;-71
2022/07/13 10:13:12;;;;;;;;;;;15.20;99.90;;;;;;5050736;28;19927;-72
2022/07/13 10:15:38;;;;;;;;;;;15.30;99.90;;;;;;5050125;28;19944;-71
2022/07/13 10:18:05;;;;;;;;;;;15.30;99.90;;;;;;5050588;28;19924;-71
2022/07/13 10:20:31;;;;;;;;;;;15.30;99.90;;;;;;5050069;28;19908;-70
2022/07/13 10:22:57;;;;;;;;;;;15.30;99.90;;;;;;5050444;28;20031;-71
2022/07/13 10:25:23;;;;;;;;;;;15.30;99.90;;;;;;5032465;28;20351;-71
2022/07/13 10:28:04;;;;;;;;;;;15.30;99.90;;;;;;5050528;28;20432;-72
2022/07/13 10:30:30;;;;;;;;;;;15.40;99.90;;;;;;5032085;28;20212;-71
2022/07/13 10:33:15;;;;;;;;;;;15.30;99.90;;;;;;5050533;28;19983;-72
2022/07/13 10:35:49;;;;;;;;;;;15.30;99.90;;;;;;5049970;28;19927;-72
2022/07/13 10:38:16;;;;;;;;;;;15.40;99.90;;;;;;5032456;28;19954;-72
2022/07/13 10:40:41;;;;;;;;;;;15.50;99.90;;;;;;5028528;28;19921;-72
2022/07/13 10:43:11;;;;;;;;;;;15.40;99.90;;;;;;5030696;28;20384;-72
2022/07/13 10:45:40;;;;;;;;;;;15.40;99.90;;;;;;5030128;28;19909;-72
2022/07/13 10:48:12;;;;;;;;;;;15.40;99.90;;;;;;5029348;28;20486;-72
2022/07/13 10:50:43;;;;;;;;;;;15.40;99.90;;;;;;5029906;28;19909;-72
2022/07/13 10:53:08;;;;;;;;;;;15.40;99.90;;;;;;5030488;28;19918;-72
2022/07/13 10:55:34;;;;;;;;;;;15.40;99.90;;;;;;5031386;28;19909;-72
2022/07/13 10:58:20;;;;;;;;;;;15.40;99.90;;;;;;5034226;28;20388;-72
2022/07/13 11:00:47;;;;;;;;;;;15.50;99.90;;;;;;5033625;28;19920;-73
2022/07/13 11:03:23;;;;;;;;;;;15.40;99.90;;;;;;5032608;28;19918;-71
2022/07/13 11:06:05;;;;;;;;;;;15.50;99.90;;;;;;5033690;28;20277;-71
2022/07/13 11:08:31;;;;;;;;;;;15.50;99.90;;;;;;5033945;28;19921;-72
2022/07/13 11:11:11;;;;;;;;;;;15.50;99.90;;;;;;5033842;28;19913;-71
2022/07/13 11:13:37;;;;;;;;;;;15.50;99.90;;;;;;5034017;28;19987;-71
2022/07/13 11:16:03;;;;;;;;;;;15.50;99.90;;;;;;5033442;28;19917;-71
2022/07/13 11:18:29;;;;;;;;;;;15.40;99.90;;;;;;5033517;28;19921;-71
2022/07/13 11:21:01;;;;;;;;;;;15.40;99.90;;;;;;5033244;28;20420;-71
2022/07/13 11:26:31;;;;;;;;;;;15.40;99.90;;;;;;5033616;28;19927;-72
2022/07/13 11:29:02;;;;;;;;;;;15.40;99.90;;;;;;5033471;28;19917;-70
2022/07/13 11:31:28;;;;;;;;;;;15.50;99.90;;;;;;5033068;28;19920;-71
2022/07/13 11:33:53;;;;;;;;;;;15.50;99.90;;;;;;5031874;28;19917;-71
2022/07/13 11:36:21;;;;;;;;;;;15.40;99.90;;;;;;5031493;28;19921;-71
2022/07/13 11:38:46;;;;;;;;;;;15.50;99.90;;;;;;5031820;28;19917;-71
2022/07/13 11:41:23;;;;;;;;;;;15.50;99.90;;;;;;5047719;28;20285;-72
2022/07/13 11:43:53;;;;;;;;;;;15.60;99.90;;;;;;5053189;28;19928;-73
2022/07/13 11:46:26;;;;;;;;;;;15.60;99.90;;;;;;5052709;28;19909;-72
2022/07/13 11:48:59;;;;;;;;;;;15.60;99.90;;;;;;5053184;28;19928;-71
2022/07/13 11:51:24;;;;;;;;;;;15.60;99.90;;;;;;5034728;28;20034;-72
2022/07/13 11:53:50;;;;;;;;;;;15.60;99.90;;;;;;5052999;28;20066;-72
2022/07/13 11:56:15;;;;;;;;;;;15.50;99.90;;;;;;5034668;28;20438;-72
2022/07/13 11:58:45;;;;;;;;;;;15.50;99.90;;;;;;5053038;28;20418;-71
2022/07/13 12:01:15;;;;;;;;;;;15.50;99.90;;;;;;5034664;28;19995;-71
2022/07/13 12:03:41;;;;;;;;;;;15.50;99.90;;;;;;5034394;28;19916;-72
2022/07/13 12:06:08;;;;;;;;;;;15.60;99.90;;;;;;5051570;28;20387;-72
2022/07/13 12:08:35;;;;;;;;;;;15.60;99.90;;;;;;5052531;28;20032;-72
2022/07/13 12:11:02;;;;;;;;;;;15.50;99.90;;;;;;5034180;28;19919;-71
2022/07/13 12:13:29;;;;;;;;;;;15.50;99.90;;;;;;5052830;28;19920;-71
2022/07/13 12:15:55;;;;;;;;;;;15.40;99.90;;;;;;5052571;28;20253;-71
2022/07/13 12:18:20;;;;;;;;;;;15.40;99.90;;;;;;5034443;28;19917;-72
2022/07/13 12:20:46;;;;;;;;;;;15.40;99.90;;;;;;5052403;28;19913;-72
2022/07/13 12:23:12;;;;;;;;;;;15.40;99.90;;;;;;5034594;28;19913;-72
2022/07/13 12:25:39;;;;;;;;;;;15.40;99.90;;;;;;5034382;28;19956;-71
2022/07/13 12:28:09;;;;;;;;;;;15.30;99.90;;;;;;5052426;28;20003;-71
2022/07/13 12:30:35;;;;;;;;;;;15.30;99.90;;;;;;5033941;28;19989;-71
2022/07/13 12:33:00;;;;;;;;;;;15.30;99.90;;;;;;5034264;28;20015;-71
2022/07/13 12:35:30;;;;;;;;;;;15.30;99.90;;;;;;5051939;28;20011;-71
2022/07/13 12:37:57;;;;;;;;;;;15.30;99.90;;;;;;5034107;28;19939;-71
2022/07/13 12:40:38;;;;;;;;;;;15.40;99.90;;;;;;5051750;28;20003;-71
2022/07/13 12:43:04;;;;;;;;;;;15.30;99.90;;;;;;5033955;28;20383;-71
2022/07/13 12:45:30;;;;;;;;;;;15.30;99.90;;;;;;5051846;28;20011;-72
2022/07/13 12:47:56;;;;;;;;;;;15.20;99.90;;;;;;5052134;28;19920;-72
2022/07/13 12:50:28;;;;;;;;;;;15.20;99.90;;;;;;5051612;28;19913;-72
2022/07/13 12:53:00;;;;;;;;;;;15.20;99.90;;;;;;5052022;28;19913;-71
2022/07/13 12:55:26;;;;;;;;;;;15.20;99.90;;;;;;5033763;28;19979;-72
2022/07/13 12:57:52;;;;;;;;;;;15.20;99.90;;;;;;5051817;28;19913;-71
2022/07/13 13:00:25;;;;;;;;;;;15.20;99.90;;;;;;5051602;28;19917;-74
2022/07/13 13:02:50;;;;;;;;;;;15.20;99.90;;;;;;5033628;28;19920;-71
2022/07/13 13:05:16;;;;;;;;;;;15.20;99.90;;;;;;5033457;28;20411;-71
2022/07/13 13:07:42;;;;;;;;;;;15.30;99.90;;;;;;5051555;28;19913;-70
2022/07/13 13:10:08;;;;;;;;;;;15.20;99.90;;;;;;5033493;28;19913;-70
2022/07/13 13:12:33;;;;;;;;;;;15.20;99.90;;;;;;5051472;28;19913;-72
2022/07/13 13:14:59;;;;;;;;;;;15.20;99.90;;;;;;5051269;28;20317;-73
2022/07/13 13:17:25;;;;;;;;;;;15.20;99.90;;;;;;5050821;28;20416;-72
2022/07/13 13:19:51;;;;;;;;;;;15.20;99.90;;;;;;5051163;28;19916;-72
2022/07/13 13:22:17;;;;;;;;;;;15.20;99.90;;;;;;5033270;28;19958;-72
2022/07/13 13:24:43;;;;;;;;;;;15.20;99.90;;;;;;5050992;28;20394;-72
2022/07/13 13:27:08;;;;;;;;;;;15.20;99.90;;;;;;5050907;28;19913;-72
2022/07/13 13:32:19;;;;;;;;;;;15.30;99.90;;;;;;5051193;28;19920;-71
2022/07/13 13:34:45;;;;;;;;;;;15.30;99.90;;;;;;5050883;28;19943;-71
2022/07/13 13:37:11;;;;;;;;;;;15.30;99.90;;;;;;5050669;28;19920;-72
2022/07/13 13:39:36;;;;;;;;;;;15.30;99.90;;;;;;5050611;28;19951;-73
2022/07/13 13:42:02;;;;;;;;;;;15.20;99.90;;;;;;5050773;28;20002;-72
2022/07/13 13:44:27;;;;;;;;;;;15.30;99.90;;;;;;5032763;28;19915;-71
2022/07/13 13:46:53;;;;;;;;;;;15.30;99.90;;;;;;5032833;28;19924;-72
2022/07/13 13:49:18;;;;;;;;;;;15.30;99.90;;;;;;5050554;28;19970;-73
2022/07/13 13:51:44;;;;;;;;;;;15.30;99.90;;;;;;5050641;28;19936;-72
2022/07/13 13:54:10;;;;;;;;;;;15.40;99.90;;;;;;5050596;28;19913;-72
2022/07/13 13:56:35;;;;;;;;;;;15.40;99.90;;;;;;5032383;28;19913;-72
2022/07/13 13:59:02;;;;;;;;;;;15.40;99.90;;;;;;5050464;28;20291;-71
2022/07/13 14:01:27;;;;;;;;;;;15.60;99.90;;;;;;5032670;28;19935;-72
2022/07/13 14:03:52;;;;;;;;;;;15.50;99.90;;;;;;5050757;28;20416;-73
2022/07/13 14:06:18;;;;;;;;;;;15.60;99.90;;;;;;5032573;28;20004;-72
2022/07/13 14:08:46;;;;;;;;;;;15.60;99.90;;;;;;5054752;28;19917;-72
2022/07/13 14:11:12;;;;;;;;;;;15.60;99.90;;;;;;5043632;28;19978;-72
2022/07/13 14:13:38;;;;;;;;;;;15.70;99.90;;;;;;5037955;28;19920;-66
2022/07/13 14:16:04;;;;;;;;;;;15.70;99.90;;;;;;5048197;28;19917;-66
2022/07/13 14:18:31;;;;;;;;;;;15.80;99.90;;;;;;5053866;28;19921;-65
2022/07/13 14:20:57;;;;;;;;;;;15.80;99.90;;;;;;5033436;28;20393;-65
2022/07/13 14:23:22;;;;;;;;;;;15.90;99.90;;;;;;5041953;28;20027;-65
2022/07/13 14:25:48;;;;;;;;;;;15.90;99.90;;;;;;5062549;28;20323;-65
2022/07/13 14:28:14;;;;;;;;;;;15.90;99.90;;;;;;5055091;28;19967;-67